Time;durP1;ratioP1;P1;durP2;ratioP2;P2;SDS_P1;SDS_P2;PMS_P1;PMS_P2;Temp;Humidity;BMP_temperature;BMP_pressure;BME280_temperature;BME280_humidity;BME280_pressure;Samples;Min_cycle;Max_cycle;Signal;HPM_P1;HPM_P2
2022/01/26 00:06:32;;;;;;;35.80;16.80;;;;;;;-1.93;81.00;93546.56;4961881;28;20101;-89
2022/01/26 00:08:51;;;;;;;38.80;16.98;;;;;;;-1.83;82.16;93555.75;5001790;28;20045;-88
2022/01/26 00:11:20;;;;;;;40.53;18.23;;;;;;;-1.84;82.29;93549.03;4962337;28;20034;-87
2022/01/26 00:13:48;;;;;;;39.85;17.10;;;;;;;-1.95;82.10;93522.88;4979005;28;20041;-89
2022/01/26 00:16:36;;;;;;;41.33;18.08;;;;;;;-2.27;81.38;93472.84;4945286;28;20471;-88
2022/01/26 00:19:05;;;;;;;44.50;18.13;;;;;;;-2.10;81.42;93496.47;4995420;28;20565;-88
2022/01/26 00:21:51;;;;;;;43.15;17.77;;;;;;;-2.29;81.14;93461.97;4978742;28;20034;-89
2022/01/26 00:24:55;;;;;;;43.63;18.52;;;;;;;-1.95;80.83;93519.50;4975012;28;20061;-88
2022/01/26 00:27:30;;;;;;;41.92;17.10;;;;;;;-2.25;80.99;93460.63;4964868;28;20045;-88
2022/01/26 00:31:59;;;;;;;41.60;17.83;;;;;;;-2.00;81.45;93514.94;4959720;28;20038;-88
2022/01/26 00:38:45;;;;;;;39.22;17.42;;;;;;;-2.10;81.26;93493.91;4984680;28;20042;-88
2022/01/26 00:41:18;;;;;;;37.80;17.90;;;;;;;-2.40;81.46;93444.50;4960069;28;20050;-89
2022/01/26 00:43:55;;;;;;;44.50;17.55;;;;;;;-2.22;81.53;93474.88;4992968;28;20038;-88
2022/01/26 00:46:22;;;;;;;40.13;16.95;;;;;;;-2.32;81.43;93455.44;4959237;28;20042;-89
2022/01/26 00:48:52;;;;;;;46.22;19.48;;;;;;;-2.39;82.19;93452.00;5007699;28;20093;-89
2022/01/26 00:51:19;;;;;;;44.90;19.05;;;;;;;-1.95;81.99;93512.59;4978395;28;20411;-89
2022/01/26 00:54:01;;;;;;;43.28;18.73;;;;;;;-2.32;81.44;93462.31;4994808;28;20034;-88
2022/01/26 00:56:29;;;;;;;45.55;19.58;;;;;;;-1.99;81.74;93521.63;4995030;28;20052;-88
2022/01/26 00:58:55;;;;;;;56.58;20.02;;;;;;;-1.97;82.52;93527.38;4977250;28;20030;-88
2022/01/26 01:01:23;;;;;;;42.20;17.70;;;;;;;-2.18;82.53;93478.66;4978174;28;20606;-88
2022/01/26 01:03:54;;;;;;;45.03;18.98;;;;;;;-2.33;82.09;93453.84;4979042;28;20030;-88
2022/01/26 01:06:26;;;;;;;44.83;18.08;;;;;;;-2.43;81.50;93442.28;4995219;28;20598;-88
2022/01/26 01:08:57;;;;;;;40.72;17.73;;;;;;;-2.44;81.19;93441.50;4986730;28;20046;-88
2022/01/26 01:11:23;;;;;;;44.60;17.92;;;;;;;-2.35;81.66;93470.41;4959189;28;20045;-88
2022/01/26 01:13:59;;;;;;;41.72;16.90;;;;;;;-2.20;81.44;93478.03;4959503;28;20031;-87
2022/01/26 01:16:37;;;;;;;40.30;16.58;;;;;;;-2.52;81.43;93433.97;4960089;28;20034;-88
2022/01/26 01:19:15;;;;;;;39.53;16.08;;;;;;;-2.54;81.07;93431.56;4960398;28;20066;-88
2022/01/26 01:29:55;;;;;;;35.70;14.60;;;;;;;-2.40;81.11;93447.06;4991822;28;20093;-88
2022/01/26 01:32:33;;;;;;;32.30;14.05;;;;;;;-2.01;80.87;93497.94;4979480;28;20061;-89
2022/01/26 01:35:09;;;;;;;;;;;;;;;-1.97;80.12;93493.22;4951162;28;20133;-89
2022/01/26 01:37:37;;;;;;;28.70;12.85;;;;;;;-2.46;79.72;93430.63;4975417;28;19918;-88
2022/01/26 01:40:13;;;;;;;30.58;13.82;;;;;;;-2.43;79.98;93422.59;4978402;28;20130;-88
2022/01/26 01:42:42;;;;;;;32.83;13.75;;;;;;;-2.13;79.50;93459.16;4962536;28;20038;-89
2022/01/26 01:45:09;;;;;;;30.38;13.57;;;;;;;-2.44;79.51;93415.88;4980097;28;20486;-88
2022/01/26 01:47:37;;;;;;;35.75;14.38;;;;;;;-2.46;80.06;93417.81;4997381;28;20178;-88
2022/01/26 01:50:12;;;;;;;34.03;14.77;;;;;;;-1.99;79.63;93475.44;4963645;28;20451;-88
2022/01/26 01:52:47;;;;;;;33.50;15.00;;;;;;;-2.34;80.09;93418.13;4977522;28;20108;-88
2022/01/26 01:55:19;;;;;;;34.28;14.80;;;;;;;-2.14;80.13;93462.72;4965874;28;20050;-88
2022/01/26 01:57:50;;;;;;;34.67;12.93;;;;;;;-2.25;80.06;93437.56;4966320;28;20103;-89
2022/01/26 02:00:29;;;;;;;;;;;;;;;;;;;;;
2022/01/26 02:03:02;;;;;;;32.97;13.10;;;;;;;-2.12;79.57;93457.38;4978684;28;20720;-88
2022/01/26 02:05:53;;;;;;;27.27;12.15;;;;;;;-2.32;78.78;93422.09;4964258;28;20042;-89
2022/01/26 02:08:24;;;;;;;27.63;11.35;;;;;;;-2.42;79.21;93398.53;4995771;28;20037;-89
2022/01/26 02:11:05;;;;;;;;;;;;;;;;;;;;;
2022/01/26 02:14:09;;;;;;;24.27;9.77;;;;;;;-2.39;77.95;93398.16;5016461;28;20133;-88
2022/01/26 02:16:45;;;;;;;35.72;10.77;;;;;;;-2.08;78.45;93437.28;4997965;28;20178;-88
2022/01/26 02:49:15;;;;;;;29.83;11.10;;;;;;;-2.11;78.00;93433.31;4977722;28;20038;-88
2022/01/26 02:55:48;;;;;;;17.13;7.22;;;;;;;-1.85;74.21;93429.34;4977209;28;20061;-88
2022/01/26 03:03:54;;;;;;;15.55;6.28;;;;;;;-1.82;72.69;93423.84;4963064;28;20039;-88
2022/01/26 03:06:27;;;;;;;11.95;4.78;;;;;;;-1.72;72.34;93434.59;4961669;28;20043;-89
2022/01/26 03:08:59;;;;;;;10.52;4.43;;;;;;;-1.70;71.54;93432.63;4948798;28;20043;-88
2022/01/26 03:11:31;;;;;;;9.85;4.10;;;;;;;-2.00;71.20;93386.63;4980451;28;20037;-88
2022/01/26 03:14:07;;;;;;;11.68;4.38;;;;;;;-1.79;71.21;93410.66;4966195;28;20046;-88
2022/01/26 03:16:45;;;;;;;11.30;4.68;;;;;;;-1.73;70.72;93417.59;4966954;28;20518;-89
2022/01/26 03:30:04;;;;;;;11.10;4.95;;;;;;;-1.73;69.90;93392.72;4964527;28;20494;-89
2022/01/26 03:35:29;;;;;;;;;;;;;;;;;;;;;
2022/01/26 03:37:56;;;;;;;8.70;4.40;;;;;;;-1.82;68.91;93372.50;4976596;28;20129;-88
2022/01/26 03:40:35;;;;;;;10.18;4.57;;;;;;;-1.78;69.02;93378.84;4969430;28;20037;-88
2022/01/26 03:43:28;;;;;;;;;;;;;;;;;;;;;
2022/01/26 03:46:04;;;;;;;10.88;5.22;;;;;;;-1.93;69.31;93356.66;4977019;28;20141;-88
2022/01/26 03:48:33;;;;;;;18.67;7.38;;;;;;;-1.78;69.53;93376.28;4961838;28;20076;-89
2022/01/26 03:51:01;;;;;;;10.43;5.72;;;;;;;-1.91;69.88;93344.44;4960930;28;20038;-87
2022/01/26 03:53:30;;;;;;;14.40;6.03;;;;;;;-1.63;69.77;93389.81;4961103;28;20050;-88
2022/01/26 03:56:04;;;;;;;17.80;7.53;;;;;;;-1.76;70.65;93376.88;4994410;28;20037;-89
2022/01/26 03:58:35;;;;;;;20.45;7.47;;;;;;;-1.59;70.29;93403.06;4995924;28;20545;-89
2022/01/26 04:01:06;;;;;;;14.98;6.65;;;;;;;-1.74;70.38;93372.38;4979885;28;20161;-88
2022/01/26 04:03:45;;;;;;;;;;;;;;;;;;;;;
2022/01/26 04:06:13;;;;;;;14.98;5.50;;;;;;;-1.55;69.95;93391.44;4977981;28;20535;-88
2022/01/26 04:08:45;;;;;;;12.73;5.53;;;;;;;-1.58;69.80;93379.75;4978340;28;20042;-88
2022/01/26 04:13:48;;;;;;;19.02;7.80;;;;;;;-1.30;71.22;93396.91;4995418;28;20046;-88
2022/01/26 04:16:17;;;;;;;14.85;6.65;;;;;;;-1.40;70.03;93386.94;4983118;28;20096;-89
2022/01/26 04:18:45;;;;;;;10.98;5.07;;;;;;;-1.68;69.32;93348.50;4960223;28;20379;-88
2022/01/26 04:21:35;;;;;;;11.98;5.43;;;;;;;-1.71;69.26;93346.34;4973141;28;20514;-89
2022/01/26 04:24:14;;;;;;;13.63;5.95;;;;;;;-1.45;69.09;93388.53;4979488;28;20029;-88
2022/01/26 04:26:59;;;;;;;27.70;10.93;;;;;;;-1.51;69.84;93375.47;4967317;28;20038;-88
2022/01/26 04:29:30;;;;;;;18.52;8.35;;;;;;;-1.74;69.85;93339.00;4976059;28;20443;-87
2022/01/26 04:32:07;;;;;;;15.77;7.25;;;;;;;-1.60;69.77;93350.13;4960071;28;20050;-88
2022/01/26 04:34:52;;;;;;;15.35;6.75;;;;;;;-1.44;70.04;93385.78;4976257;28;20688;-89
2022/01/26 04:40:11;;;;;;;13.38;6.03;;;;;;;-1.53;69.51;93369.72;4994140;28;20108;-88
2022/01/26 04:45:13;;;;;;;16.30;6.93;;;;;;;-1.65;68.70;93337.06;4996480;28;20137;-89
2022/01/26 04:47:41;;;;;;;14.90;6.18;;;;;;;-1.35;68.49;93371.78;4969833;28;20042;-89
2022/01/26 04:50:12;;;;;;;15.95;6.28;;;;;;;-1.64;69.07;93329.19;4996708;28;20038;-88
2022/01/26 04:52:46;;;;;;;12.48;5.53;;;;;;;-1.66;68.76;93326.00;4995097;28;20042;-88
2022/01/26 04:55:13;;;;;;;12.25;5.85;;;;;;;-1.61;68.28;93333.91;4995253;28;20042;-88
2022/01/26 04:57:41;;;;;;;11.95;4.85;;;;;;;-1.18;68.04;93394.56;4973866;28;20077;-89
2022/01/26 05:00:12;;;;;;;11.75;5.22;;;;;;;-1.65;68.02;93332.72;4959372;28;20089;-89
2022/01/26 05:02:50;;;;;;;;;;;;;;;;;;;;;
2022/01/26 05:05:24;;;;;;;14.50;6.07;;;;;;;-1.40;68.07;93370.75;4982901;28;20038;-88
2022/01/26 05:07:49;;;;;;;14.55;6.28;;;;;;;-1.40;68.28;93378.47;4989352;28;20045;-88
2022/01/26 05:10:38;;;;;;;12.98;5.35;;;;;;;-1.23;68.33;93390.00;4991503;28;20045;-89
2022/01/26 05:13:10;;;;;;;13.90;5.47;;;;;;;-1.37;68.18;93375.53;4975162;28;20089;-88
2022/01/26 05:15:38;;;;;;;13.00;5.40;;;;;;;-1.34;67.98;93375.13;4975835;28;20395;-89
2022/01/26 05:18:14;;;;;;;16.25;5.85;;;;;;;-1.29;67.65;93370.22;4975895;28;20041;-89
2022/01/26 05:20:40;;;;;;;11.32;4.90;;;;;;;-1.30;67.55;93366.06;4973980;28;20089;-89
2022/01/26 05:23:09;;;;;;;12.82;4.88;;;;;;;-1.57;67.39;93335.13;4991003;28;20049;-89
2022/01/26 05:25:42;;;;;;;11.43;5.80;;;;;;;-1.49;67.62;93342.69;4990984;28;20060;-88
2022/01/26 05:28:10;;;;;;;10.38;4.82;;;;;;;-1.30;67.54;93373.78;4990517;28;20716;-88
2022/01/26 05:30:40;;;;;;;11.02;5.78;;;;;;;-1.31;67.26;93374.75;4987218;28;20065;-88
2022/01/26 05:33:10;;;;;;;14.30;5.18;;;;;;;-1.33;66.98;93371.56;4974854;28;20042;-89
2022/01/26 05:35:48;;;;;;;11.82;4.95;;;;;;;-1.33;66.61;93361.28;4974099;28;20034;-87
2022/01/26 05:38:18;;;;;;;12.32;5.03;;;;;;;-1.24;66.53;93374.78;4959030;28;20045;-88
2022/01/26 05:40:50;;;;;;;14.20;5.03;;;;;;;-1.29;66.62;93362.50;4965441;28;20184;-88
2022/01/26 05:43:18;;;;;;;11.10;5.40;;;;;;;-1.23;66.10;93366.88;4960628;28;20038;-88
2022/01/26 05:45:50;;;;;;;13.32;5.00;;;;;;;-1.48;66.48;93325.50;4972440;28;20037;-90
2022/01/26 05:48:55;;;;;;;12.30;5.20;;;;;;;-1.02;66.29;93396.00;4978773;28;20469;-89
2022/01/26 05:51:51;;;;;;;11.73;4.80;;;;;;;-0.95;65.29;93389.88;4975169;28;20050;-90
2022/01/26 05:58:13;;;;;;;11.68;4.82;;;;;;;-0.89;65.83;93383.97;4982589;28;20093;-89
2022/01/26 06:00:38;;;;;;;13.10;5.55;;;;;;;-0.96;65.25;93377.25;4978367;28;20484;-89
2022/01/26 06:03:04;;;;;;;11.85;5.05;;;;;;;-0.95;65.01;93371.91;4980840;28;20046;-89
2022/01/26 06:05:31;;;;;;;12.80;5.82;;;;;;;-1.11;64.49;93329.34;4980990;28;20050;-91
2022/01/26 06:11:51;;;;;;;;;;;;;;;-0.51;63.99;93398.13;5019119;28;20045;-89
2022/01/26 06:14:42;;;;;;;;;;;;;;;;;;;;;
2022/01/26 06:21:35;;;;;;;;;;;;;;;-0.57;64.24;93407.38;5010013;23;20061;-76
2022/01/26 06:24:00;;;;;;;11.23;4.97;;;;;;;-0.61;64.29;93395.91;5007789;28;19921;-77
2022/01/26 06:26:26;;;;;;;8.85;4.82;;;;;;;-0.64;64.15;93406.59;4980518;28;20041;-75
2022/01/26 06:28:51;;;;;;;12.23;5.32;;;;;;;-0.68;64.21;93401.03;4992420;28;20042;-75
2022/01/26 06:31:18;;;;;;;15.80;5.60;;;;;;;-0.66;64.40;93411.91;5000950;28;20033;-75
2022/01/26 06:33:46;;;;;;;10.52;4.70;;;;;;;-0.61;64.56;93407.97;5010649;28;20076;-74
2022/01/26 06:36:14;;;;;;;14.77;5.55;;;;;;;-0.59;64.69;93408.56;4992770;28;20037;-75
2022/01/26 06:38:41;;;;;;;16.08;5.68;;;;;;;-0.57;64.26;93414.31;4995545;28;20038;-75
2022/01/26 06:41:07;;;;;;;12.82;5.15;;;;;;;-0.57;63.98;93398.88;4991694;28;20027;-75
2022/01/26 06:43:34;;;;;;;13.32;4.80;;;;;;;-0.57;64.32;93409.97;4993305;28;20137;-75
2022/01/26 06:46:05;;;;;;;10.15;4.72;;;;;;;-0.57;64.32;93414.31;4993812;28;20018;-75
2022/01/26 06:50:57;;;;;;;11.30;4.93;;;;;;;-0.55;63.97;93414.91;4992645;28;20026;-75
2022/01/26 06:53:23;;;;;;;12.07;4.93;;;;;;;-0.54;64.04;93422.44;5003057;28;20041;-77
2022/01/26 06:55:49;;;;;;;18.63;6.30;;;;;;;-0.44;63.23;93422.06;4968421;28;20027;-75
2022/01/26 06:58:14;;;;;;;12.57;5.65;;;;;;;-0.41;63.59;93431.94;4996379;28;20557;-75
2022/01/26 07:00:40;;;;;;;13.15;5.32;;;;;;;-0.42;63.48;93425.22;4993393;28;20072;-76
2022/01/26 07:03:06;;;;;;;10.02;5.00;;;;;;;-0.39;63.76;93429.19;4993058;28;20038;-77
2022/01/26 07:05:32;;;;;;;12.52;5.43;;;;;;;-0.38;63.56;93433.34;4988765;28;20383;-77
2022/01/26 07:07:57;;;;;;;12.65;5.03;;;;;;;-0.35;63.49;93432.97;4992765;28;20038;-77
2022/01/26 07:10:23;;;;;;;13.57;5.60;;;;;;;-0.31;63.68;93434.94;4993729;28;20034;-78
2022/01/26 07:12:49;;;;;;;13.00;5.65;;;;;;;0.52;61.70;93434.53;4977957;28;20503;-77
2022/01/26 07:23:40;;;;;;;17.27;6.60;;;;;;;8.92;43.27;93428.56;5012982;28;20030;-79
2022/01/26 07:26:06;;;;;;;15.77;6.22;;;;;;;9.98;39.54;93430.00;5012196;28;20114;-79
2022/01/26 07:28:39;;;;;;;13.95;6.25;;;;;;;11.13;36.86;93424.53;4979874;28;20034;-78
2022/01/26 07:31:06;;;;;;;13.20;5.85;;;;;;;12.26;34.75;93428.22;4978539;28;20038;-80
2022/01/26 07:33:32;;;;;;;15.63;6.88;;;;;;;13.25;30.77;93426.31;4996316;28;20121;-80
2022/01/26 07:35:58;;;;;;;16.67;7.32;;;;;;;13.98;31.74;93424.44;4994643;28;20492;-79
2022/01/26 07:38:27;;;;;;;14.35;6.40;;;;;;;14.96;29.07;93425.34;5004274;28;20084;-79
2022/01/26 07:40:53;;;;;;;18.13;8.52;;;;;;;15.81;27.98;93422.50;4975558;28;20081;-80
2022/01/26 07:43:19;;;;;;;18.05;8.95;;;;;;;16.45;27.20;93422.44;4993474;28;20026;-78
2022/01/26 07:45:45;;;;;;;18.88;9.50;;;;;;;17.48;26.02;93426.00;4992325;28;20519;-78
2022/01/26 07:48:10;;;;;;;20.30;9.98;;;;;;;18.33;24.83;93430.25;4994449;28;20029;-78
2022/01/26 07:50:36;;;;;;;20.00;10.55;;;;;;;18.92;24.03;93426.06;4994900;28;20038;-79
2022/01/26 07:53:03;;;;;;;22.95;10.50;;;;;;;19.56;23.40;93429.78;4995014;28;20030;-80
2022/01/26 07:55:30;;;;;;;24.25;10.38;;;;;;;20.17;22.16;93432.94;4994769;28;20070;-79
2022/01/26 07:57:57;;;;;;;20.42;10.48;;;;;;;21.11;20.79;93425.63;4995518;28;20095;-79
2022/01/26 08:00:23;;;;;;;21.98;10.52;;;;;;;21.39;20.70;93423.09;4981791;28;20248;-79
2022/01/26 08:02:50;;;;;;;21.67;10.60;;;;;;;21.73;20.45;93424.63;4979933;28;20085;-79
2022/01/26 08:05:16;;;;;;;19.98;10.52;;;;;;;22.26;19.67;93426.63;4978880;28;20081;-80
2022/01/26 08:07:43;;;;;;;21.20;12.23;;;;;;;22.12;19.70;93433.06;4979384;28;20041;-80
2022/01/26 08:10:10;;;;;;;21.90;10.90;;;;;;;22.62;19.64;93428.41;5007798;28;20472;-80
2022/01/26 08:12:37;;;;;;;25.38;11.52;;;;;;;20.98;21.03;93435.44;5006145;28;20048;-79
2022/01/26 08:15:03;;;;;;;26.75;12.93;;;;;;;19.80;22.69;93436.44;4980544;28;20113;-79
2022/01/26 08:17:29;;;;;;;25.92;12.93;;;;;;;20.72;22.31;93436.47;4998525;28;20062;-79
2022/01/26 08:19:55;;;;;;;23.00;12.60;;;;;;;21.75;21.01;93426.94;5003986;28;20042;-79
2022/01/26 08:22:21;;;;;;;24.55;12.98;;;;;;;21.08;21.29;93423.63;4996726;28;20057;-79
2022/01/26 08:24:48;;;;;;;24.25;13.25;;;;;;;20.82;21.23;93427.28;4983298;28;20495;-79
2022/01/26 08:27:16;;;;;;;24.92;13.40;;;;;;;21.85;20.65;93439.06;5000820;28;20031;-79
2022/01/26 08:29:46;;;;;;;22.13;12.25;;;;;;;20.57;21.21;93437.81;4998988;28;20130;-78
2022/01/26 08:32:11;;;;;;;23.63;12.82;;;;;;;21.08;21.09;93439.59;4980511;28;20087;-79
2022/01/26 08:34:37;;;;;;;25.95;13.25;;;;;;;20.90;20.76;93434.44;4980131;28;20125;-80
2022/01/26 08:37:04;;;;;;;22.23;13.13;;;;;;;20.64;21.50;93441.84;4981495;28;20046;-78
2022/01/26 08:39:32;;;;;;;25.20;14.20;;;;;;;19.88;22.61;93435.59;4999622;28;20037;-79
2022/01/26 08:41:59;;;;;;;26.15;14.38;;;;;;;20.97;21.63;93436.56;5017814;28;20041;-79
2022/01/26 08:44:24;;;;;;;23.70;13.55;;;;;;;22.03;20.82;93440.38;5016788;28;20033;-81
2022/01/26 08:46:51;;;;;;;28.27;14.85;;;;;;;22.35;19.92;93438.72;4998538;28;20038;-78
2022/01/26 08:49:16;;;;;;;23.67;13.52;;;;;;;22.33;20.08;93437.50;4992267;28;20479;-77
2022/01/26 08:51:42;;;;;;;27.67;15.40;;;;;;;21.48;21.25;93441.69;5012244;28;20026;-78
2022/01/26 08:54:10;;;;;;;25.95;14.95;;;;;;;19.53;23.80;93439.16;5004496;28;20033;-74
2022/01/26 08:56:37;;;;;;;28.13;15.63;;;;;;;17.97;25.91;93437.41;4987540;28;20487;-74
2022/01/26 08:59:03;;;;;;;27.73;15.00;;;;;;;17.13;27.02;93439.06;4992660;28;20033;-74
2022/01/26 09:01:29;;;;;;;33.42;16.10;;;;;;;16.41;28.28;93440.75;4989954;28;20053;-75
2022/01/26 09:03:55;;;;;;;31.40;15.10;;;;;;;13.46;33.27;93448.72;4998408;28;20023;-75
2022/01/26 09:06:21;;;;;;;30.67;14.15;;;;;;;13.02;34.33;93454.94;4990719;28;20125;-75
2022/01/26 09:08:52;;;;;;;28.13;14.10;;;;;;;11.98;36.78;93455.16;4991038;28;20069;-74
2022/01/26 09:11:22;;;;;;;31.17;14.07;;;;;;;10.90;39.27;93460.72;5002760;28;20037;-74
2022/01/26 09:13:55;;;;;;;33.60;14.57;;;;;;;10.79;39.51;93457.31;4996169;28;20046;-74
2022/01/26 09:16:23;;;;;;;25.65;13.68;;;;;;;10.17;41.18;93461.69;4990638;28;20570;-74
2022/01/26 09:18:55;;;;;;;26.60;13.10;;;;;;;10.27;40.28;93460.13;4957467;28;20105;-74
2022/01/26 09:21:24;;;;;;;33.40;14.88;;;;;;;9.28;43.44;93468.72;4973936;28;20516;-74
2022/01/26 09:23:51;;;;;;;29.17;14.18;;;;;;;8.93;43.88;93479.75;4993231;28;20080;-73
2022/01/26 09:26:18;;;;;;;28.60;14.15;;;;;;;9.11;42.98;93478.53;4988476;28;20034;-74
2022/01/26 09:28:44;;;;;;;25.30;13.00;;;;;;;9.38;43.07;93473.97;4989593;28;20030;-73
2022/01/26 09:31:10;;;;;;;29.67;13.65;;;;;;;9.47;43.42;93476.13;4990390;28;20034;-74
2022/01/26 09:33:35;;;;;;;30.98;15.05;;;;;;;9.36;44.83;93473.44;4990036;28;20661;-73
2022/01/26 09:36:03;;;;;;;28.88;13.90;;;;;;;9.38;43.91;93473.97;4990535;28;20042;-73
2022/01/26 09:38:28;;;;;;;32.22;14.68;;;;;;;9.56;43.88;93464.13;4992414;28;20041;-74
2022/01/26 09:40:54;;;;;;;26.27;14.63;;;;;;;9.37;43.18;93467.19;4992795;28;20036;-76
2022/01/26 09:43:19;;;;;;;25.98;12.85;;;;;;;9.36;44.05;93464.84;5010555;28;20053;-74
2022/01/26 09:45:45;;;;;;;32.20;14.85;;;;;;;8.85;44.56;93467.94;5000857;28;20027;-73
2022/01/26 09:48:13;;;;;;;29.17;13.93;;;;;;;9.06;44.07;93470.69;4989845;28;20037;-74
2022/01/26 09:50:42;;;;;;;30.00;13.63;;;;;;;9.19;44.02;93467.63;4996778;28;20030;-74
2022/01/26 09:53:10;;;;;;;23.60;12.57;;;;;;;8.88;44.81;93464.81;5013347;28;20033;-73
2022/01/26 09:55:40;;;;;;;34.13;15.10;;;;;;;8.64;45.16;93468.81;5002837;28;20036;-76
2022/01/26 09:58:06;;;;;;;31.45;14.18;;;;;;;8.48;46.78;93467.91;4999656;28;20137;-75
2022/01/26 10:00:32;;;;;;;27.77;13.30;;;;;;;8.85;45.07;93465.34;5006338;28;20125;-75
2022/01/26 10:03:00;;;;;;;29.83;14.05;;;;;;;8.74;44.67;93468.91;5010643;28;20491;-75
2022/01/26 10:05:36;;;;;;;32.00;14.82;;;;;;;9.13;44.24;93468.63;5004915;28;20040;-75
2022/01/26 10:15:27;;;;;;;37.08;15.50;;;;;;;8.93;45.27;93457.00;4999383;28;20038;-75
2022/01/26 10:19:02;;;;;;;26.10;11.15;;;;;;;8.50;46.20;93463.25;5011409;28;20029;-74
2022/01/26 10:21:27;;;;;;;28.92;13.48;;;;;;;8.24;48.19;93462.19;5002346;28;20046;-75
2022/01/26 10:23:57;;;;;;;31.90;15.52;;;;;;;8.20;49.04;93456.69;4980810;28;20074;-75
2022/01/26 10:26:23;;;;;;;31.17;14.50;;;;;;;8.65;46.58;93452.16;4984831;28;20030;-74
2022/01/26 10:29:00;;;;;;;32.50;15.80;;;;;;;9.21;45.21;93451.69;4997102;28;20053;-75
2022/01/26 10:31:34;;;;;;;31.40;15.10;;;;;;;9.30;44.65;93453.59;4996862;28;20034;-75
2022/01/26 10:34:09;;;;;;;32.17;14.32;;;;;;;9.53;43.54;93449.75;4993545;28;20350;-74
2022/01/26 10:36:42;;;;;;;30.65;13.68;;;;;;;9.28;44.02;93447.81;4993044;28;20042;-75
2022/01/26 10:39:11;;;;;;;29.27;12.60;;;;;;;9.40;43.20;93442.38;4982505;28;20046;-75
2022/01/26 10:41:39;;;;;;;26.90;13.00;;;;;;;8.73;45.12;93441.22;5009817;28;20037;-75
2022/01/26 10:44:05;;;;;;;41.10;17.23;;;;;;;8.77;47.87;93436.28;5012635;28;20491;-75
2022/01/26 10:46:42;;;;;;;35.03;17.30;;;;;;;9.24;45.01;93435.53;4988087;28;20100;-75
2022/01/26 10:54:37;;;;;;;28.80;14.77;;;;;;;9.27;42.80;93437.63;5012444;28;20042;-75
2022/01/26 10:57:06;;;;;;;22.27;10.57;;;;;;;9.02;43.10;93433.06;5002969;28;20037;-75
2022/01/26 10:59:40;;;;;;;26.83;12.30;;;;;;;8.78;43.04;93427.41;4985212;28;20026;-75
2022/01/26 11:02:08;;;;;;;29.63;13.05;;;;;;;8.71;42.17;93425.03;4993976;28;20038;-75
2022/01/26 11:04:35;;;;;;;16.17;8.23;;;;;;;8.73;42.90;93422.94;4983486;28;20447;-73
2022/01/26 11:07:03;;;;;;;33.13;15.25;;;;;;;8.38;44.61;93428.69;4992829;28;20058;-74
2022/01/26 11:09:32;;;;;;;38.25;16.45;;;;;;;8.46;45.57;93415.97;4992830;28;20034;-73
2022/01/26 11:12:02;;;;;;;26.05;11.45;;;;;;;8.37;45.30;93419.28;5000389;28;20057;-74
2022/01/26 11:14:50;;;;;;;34.42;15.93;;;;;;;8.44;46.97;93417.25;4996293;28;20035;-75
2022/01/26 11:17:34;;;;;;;31.50;15.48;;;;;;;8.94;45.37;93409.00;4992932;28;20125;-74
2022/01/26 11:20:14;;;;;;;28.58;14.27;;;;;;;8.70;46.57;93410.41;4993409;28;20091;-74
2022/01/26 11:22:48;;;;;;;28.35;14.18;;;;;;;9.16;45.24;93403.63;4982098;28;20518;-74
2022/01/26 11:25:14;;;;;;;32.63;13.77;;;;;;;9.01;44.81;93387.88;5012575;28;20030;-74
2022/01/26 11:27:41;;;;;;;31.88;13.80;;;;;;;8.95;45.67;93401.94;5011936;28;20392;-74
2022/01/26 11:30:15;;;;;;;35.28;16.30;;;;;;;8.82;46.85;93395.31;4993716;28;20042;-75
2022/01/26 11:32:53;;;;;;;31.42;16.00;;;;;;;8.80;45.98;93394.78;5004513;28;20121;-75
2022/01/26 11:35:20;;;;;;;33.17;15.85;;;;;;;9.33;45.59;93387.75;5009449;28;20458;-74
2022/01/26 11:37:51;;;;;;;33.13;16.35;;;;;;;9.19;45.07;93386.66;4994166;28;20040;-75
2022/01/26 11:46:07;;;;;;;32.55;15.85;;;;;;;9.44;44.30;93378.13;4991956;28;20405;-75
2022/01/26 11:48:33;;;;;;;33.72;17.25;;;;;;;9.28;45.00;93381.72;5008204;28;20125;-75
2022/01/26 11:51:01;;;;;;;35.72;16.90;;;;;;;9.41;45.55;93367.38;5011600;28;20113;-74
2022/01/26 11:53:28;;;;;;;28.17;14.80;;;;;;;8.87;46.47;93366.66;5011369;28;20514;-75
2022/01/26 11:56:06;;;;;;;41.47;19.70;;;;;;;9.00;46.42;93375.06;4993871;28;20505;-74
2022/01/26 11:58:45;;;;;;;39.58;15.63;;;;;;;9.04;45.81;93374.28;5007548;28;20487;-75
2022/01/26 12:01:28;;;;;;;35.05;15.70;;;;;;;9.52;45.27;93363.75;4990025;28;20053;-75
2022/01/26 12:04:01;;;;;;;31.13;15.52;;;;;;;9.00;46.22;93368.00;4974887;28;20050;-75
2022/01/26 12:06:29;;;;;;;28.83;14.10;;;;;;;9.47;46.12;93358.50;4991654;28;20042;-74
2022/01/26 12:08:58;;;;;;;27.50;14.88;;;;;;;9.42;44.87;93353.28;4992350;28;20057;-75
2022/01/26 12:11:28;;;;;;;29.77;15.55;;;;;;;9.49;45.20;93352.00;4990320;28;20129;-75
2022/01/26 12:14:05;;;;;;;35.42;16.33;;;;;;;9.35;45.82;93349.06;4991630;28;20048;-75
2022/01/26 12:16:42;;;;;;;33.17;14.15;;;;;;;9.66;43.90;93353.59;4992586;28;20275;-75
2022/01/26 12:35:49;;;;;;;34.50;17.10;;;;;;;10.56;43.22;93319.06;5010982;28;20092;-74
2022/01/26 12:38:19;;;;;;;30.75;15.20;;;;;;;10.55;42.93;93320.91;4991081;28;20133;-74
2022/01/26 12:43:35;;;;;;;39.72;18.77;;;;;;;10.46;43.81;93322.50;4991030;28;20046;-76
2022/01/26 12:46:01;;;;;;;39.63;18.27;;;;;;;10.73;44.61;93319.56;4990219;28;20018;-76
2022/01/26 12:48:29;;;;;;;41.58;18.27;;;;;;;10.14;44.01;93317.53;4992466;28;20541;-75
2022/01/26 12:50:57;;;;;;;30.80;13.80;;;;;;;9.93;43.34;93311.50;4977038;28;20491;-76
2022/01/26 12:53:25;;;;;;;36.05;19.27;;;;;;;10.01;44.95;93316.22;5010709;28;20053;-75
2022/01/26 12:55:59;;;;;;;31.33;16.55;;;;;;;9.75;45.00;93299.75;5010734;28;20399;-75
2022/01/26 12:58:30;;;;;;;32.13;15.15;;;;;;;10.28;43.94;93317.78;4996837;28;20065;-76
2022/01/26 13:01:06;;;;;;;32.08;15.52;;;;;;;10.34;42.64;93306.31;4992368;28;20125;-75
2022/01/26 13:03:37;;;;;;;27.75;13.82;;;;;;;10.05;43.86;93300.81;5010447;28;20494;-75
2022/01/26 13:06:11;;;;;;;26.17;12.10;;;;;;;9.44;44.00;93294.47;4993135;28;20038;-75
2022/01/26 13:08:58;;;;;;;26.20;12.88;;;;;;;9.33;46.29;93295.50;5010502;28;20037;-75
2022/01/26 13:11:24;;;;;;;25.50;10.63;;;;;;;9.84;43.51;93292.16;5008974;28;20049;-75
2022/01/26 13:13:50;;;;;;;23.15;10.25;;;;;;;9.99;42.26;93289.56;5008771;28;20510;-76
2022/01/26 13:16:20;;;;;;;24.08;10.85;;;;;;;10.02;43.93;93286.44;4969861;28;20089;-75
2022/01/26 13:24:22;;;;;;;29.92;14.40;;;;;;;10.51;43.70;93285.84;5014520;28;20042;-75
2022/01/26 13:35:18;;;;;;;34.22;15.88;;;;;;;10.06;45.04;93274.38;5005284;28;20442;-75
2022/01/26 13:41:06;;;;;;;32.53;16.33;;;;;;;10.70;43.72;93280.06;4943346;28;20048;-76
2022/01/26 13:59:32;;;;;;;35.45;17.13;;;;;;;10.79;44.54;93286.31;5009028;28;20175;-75
2022/01/26 14:01:59;;;;;;;32.10;15.68;;;;;;;10.43;44.18;93277.78;5013778;28;20038;-75
2022/01/26 14:04:25;;;;;;;34.72;17.83;;;;;;;10.26;45.18;93288.50;5013737;28;20038;-75
2022/01/26 14:06:51;;;;;;;36.65;18.33;;;;;;;10.13;45.00;93277.53;5011577;28;20045;-75
2022/01/26 14:09:17;;;;;;;36.03;16.92;;;;;;;10.81;43.60;93284.19;5013993;28;20018;-76
2022/01/26 14:11:46;;;;;;;36.05;16.48;;;;;;;11.19;43.10;93280.09;5013107;28;20121;-75
2022/01/26 14:14:20;;;;;;;34.67;16.27;;;;;;;11.42;41.69;93278.66;5013415;28;20117;-76
2022/01/26 14:16:55;;;;;;;33.65;17.17;;;;;;;11.25;41.97;93278.22;5013264;28;20065;-75
2022/01/26 14:25:05;;;;;;;39.30;16.48;;;;;;;11.28;42.35;93290.00;4995270;28;20408;-76
2022/01/26 14:27:42;;;;;;;33.05;16.02;;;;;;;11.41;42.08;93287.56;5012821;28;20411;-75
2022/01/26 14:35:42;;;;;;;30.65;15.65;;;;;;;10.88;42.56;93283.91;4975890;28;20046;-76
2022/01/26 15:50:47;;;;;;;27.88;13.38;;;;;;;8.27;47.79;93313.03;4992959;28;20097;-76
2022/01/26 17:34:36;;;;;;;3.25;1.30;;;;;;;6.28;30.51;93338.56;4991014;28;20053;-76
2022/01/26 18:16:30;;;;;;;1.50;1.00;;;;;;;6.24;28.17;93368.69;5000375;28;20042;-78
2022/01/26 18:32:58;;;;;;;1.75;0.80;;;;;;;6.43;27.68;93371.81;4993977;28;20045;-78
2022/01/26 18:46:24;;;;;;;1.60;0.88;;;;;;;6.22;28.56;93360.31;5012700;28;20069;-78
2022/01/26 18:51:41;;;;;;;6.05;1.02;;;;;;;6.02;28.38;93369.38;5001218;28;20794;-78
2022/01/26 18:54:08;;;;;;;1.38;0.93;;;;;;;6.00;28.26;93363.63;4993569;28;20034;-78
2022/01/26 18:56:39;;;;;;;1.38;0.82;;;;;;;5.95;28.51;93371.34;4975007;28;20038;-78